createdAt,value
2019-05-07T00:02:26.792Z,5.40
2019-05-07T00:05:16.286Z,5.30
2019-05-07T00:08:06.696Z,5.20
2019-05-07T00:10:56.063Z,5.10
2019-05-07T00:13:45.713Z,5.00
2019-05-07T00:16:36.666Z,4.90
2019-05-07T00:19:26.216Z,4.90
2019-05-07T00:22:23.419Z,4.90
2019-05-07T00:25:14.158Z,4.80
2019-05-07T00:28:05.376Z,4.80
2019-05-07T00:30:55.151Z,4.70
2019-05-07T00:33:44.242Z,4.60
2019-05-07T00:36:41.962Z,4.50
2019-05-07T00:39:53.848Z,4.50
2019-05-07T00:43:02.720Z,4.40
2019-05-07T01:01:47.622Z,3.90
2019-05-07T01:04:36.842Z,3.90
2019-05-07T01:07:25.965Z,3.80
2019-05-07T01:10:15.938Z,3.80
2019-05-07T01:13:05.615Z,3.70
2019-05-07T01:15:55.108Z,3.70
2019-05-07T01:18:45.890Z,3.60
2019-05-07T01:21:36.749Z,3.60
2019-05-07T01:24:26.172Z,3.50
2019-05-07T01:27:16.174Z,3.40
2019-05-07T01:30:06.302Z,3.40
2019-05-07T01:33:08.008Z,3.40
2019-05-07T01:36:15.222Z,3.40
2019-05-07T01:39:05.548Z,3.30
2019-05-07T01:41:56.877Z,3.30
2019-05-07T01:44:48.513Z,3.20
2019-05-07T01:47:38.626Z,3.20
2019-05-07T01:50:28.190Z,3.20
2019-05-07T01:53:18.144Z,3.10
2019-05-07T01:56:08.683Z,3.00
2019-05-07T01:58:58.118Z,3.10
2019-05-07T02:01:52.184Z,3.00
2019-05-07T02:04:52.151Z,3.00
2019-05-07T02:07:46.444Z,2.90
2019-05-07T02:10:46.051Z,2.90
2019-05-07T02:13:36.239Z,2.80
2019-05-07T02:16:25.654Z,2.80
2019-05-07T02:19:14.939Z,2.80
2019-05-07T02:22:04.711Z,2.80
2019-05-07T02:24:54.795Z,2.70
2019-05-07T02:27:44.327Z,2.70
2019-05-07T02:30:39.861Z,2.70
2019-05-07T02:33:36.411Z,2.70
2019-05-07T02:36:27.303Z,2.60
2019-05-07T02:39:36.704Z,2.60
2019-05-07T02:42:26.368Z,2.60
2019-05-07T02:45:23.958Z,2.60
2019-05-07T02:48:15.811Z,2.70
2019-05-07T02:51:24.060Z,2.60
2019-05-07T02:54:24.213Z,2.50
2019-05-07T02:57:16.961Z,2.70
2019-05-07T03:00:06.962Z,2.70
2019-05-07T03:02:57.107Z,2.70
2019-05-07T03:05:46.867Z,2.70
2019-05-07T03:08:36.672Z,2.80
2019-05-07T03:11:26.236Z,2.80
2019-05-07T03:14:15.548Z,2.80
2019-05-07T03:17:05.996Z,2.80
2019-05-07T03:19:57.826Z,2.80
2019-05-07T03:26:14.197Z,2.80
2019-05-07T03:29:07.587Z,2.80
2019-05-07T03:32:28.472Z,2.80
2019-05-07T03:35:27.507Z,2.80
2019-05-07T03:38:15.963Z,2.70
2019-05-07T03:41:07.385Z,2.70
2019-05-07T03:43:59.154Z,2.70
2019-05-07T03:47:00.621Z,2.70
2019-05-07T03:49:42.793Z,2.70
2019-05-07T03:52:33.424Z,2.70
2019-05-07T03:55:26.503Z,2.70
2019-05-07T03:58:16.638Z,2.70
2019-05-07T04:01:06.507Z,2.70
2019-05-07T04:03:56.634Z,2.70
2019-05-07T04:06:46.572Z,2.80
2019-05-07T04:09:36.688Z,2.80
2019-05-07T04:12:26.458Z,2.80
2019-05-07T04:15:19.355Z,2.90
2019-05-07T04:18:15.659Z,2.90
2019-05-07T04:21:05.410Z,2.90
2019-05-07T04:24:13.538Z,2.90
2019-05-07T04:27:12.844Z,2.90
2019-05-07T04:30:03.594Z,2.90
2019-05-07T04:33:03.218Z,2.90
2019-05-07T04:35:58.057Z,2.90
2019-05-07T04:38:48.057Z,2.80
2019-05-07T04:41:37.325Z,2.90
2019-05-07T04:44:26.479Z,3.00
2019-05-07T04:47:32.993Z,3.00
2019-05-07T04:50:08.225Z,3.10
2019-05-07T04:52:58.830Z,3.10
2019-05-07T04:55:47.978Z,3.10
2019-05-07T04:58:39.384Z,3.20
2019-05-07T05:01:32.905Z,3.20
2019-05-07T05:04:30.258Z,3.30
2019-05-07T05:07:13.482Z,3.20
2019-05-07T05:10:03.333Z,3.30
2019-05-07T05:12:59.983Z,3.40
2019-05-07T05:15:50.075Z,3.50
2019-05-07T05:18:46.060Z,3.60
2019-05-07T05:21:54.818Z,3.60
2019-05-07T05:24:46.576Z,3.60
2019-05-07T05:27:37.454Z,3.70
2019-05-07T05:30:44.435Z,3.80
2019-05-07T05:33:34.609Z,3.90
2019-05-07T05:36:24.629Z,4.00
2019-05-07T05:39:14.331Z,4.10
2019-05-07T05:42:23.031Z,4.20
2019-05-07T05:45:30.454Z,4.30
2019-05-07T05:48:22.227Z,4.30
2019-05-07T05:51:22.749Z,4.40
2019-05-07T05:54:35.132Z,4.50
2019-05-07T05:57:47.096Z,4.70
2019-05-07T06:00:56.903Z,4.90
2019-05-07T06:04:02.989Z,5.10
2019-05-07T06:07:08.751Z,5.30
2019-05-07T06:10:08.410Z,5.40
2019-05-07T06:13:13.043Z,5.60
2019-05-07T06:16:12.939Z,5.90
2019-05-07T06:19:22.637Z,6.10
2019-05-07T06:22:44.279Z,6.20
2019-05-07T06:25:33.879Z,6.20
2019-05-07T06:28:32.853Z,6.20
2019-05-07T06:31:22.760Z,6.30
2019-05-07T06:34:13.141Z,6.50
2019-05-07T06:37:03.966Z,6.70
2019-05-07T06:40:04.955Z,7.10
2019-05-07T06:43:03.145Z,7.00
2019-05-07T06:46:01.933Z,7.10
2019-05-07T06:48:52.780Z,7.70
2019-05-07T06:51:43.070Z,8.20
2019-05-07T06:54:33.329Z,8.20
2019-05-07T06:57:24.383Z,8.20
2019-05-07T07:00:33.851Z,8.50
2019-05-07T07:06:32.459Z,9.20
2019-05-07T07:09:32.892Z,9.40
2019-05-07T07:12:26.094Z,9.90
2019-05-07T07:15:15.909Z,10.30
2019-05-07T07:18:06.134Z,10.70
2019-05-07T07:20:56.444Z,11.00
2019-05-07T07:23:52.359Z,11.20
2019-05-07T07:26:43.445Z,11.20
2019-05-07T07:29:34.758Z,11.40
2019-05-07T07:32:31.815Z,11.90
2019-05-07T07:35:22.536Z,12.10
2019-05-07T07:38:29.750Z,12.10
2019-05-07T07:41:34.946Z,12.10
2019-05-07T07:44:24.087Z,12.70
2019-05-07T07:47:14.324Z,13.10
2019-05-07T07:50:03.771Z,13.40
2019-05-07T07:52:53.119Z,13.90
2019-05-07T07:56:03.299Z,14.40
2019-05-07T07:59:13.254Z,14.00
2019-05-07T08:02:32.205Z,14.10
2019-05-07T08:05:21.902Z,13.50
2019-05-07T08:08:12.972Z,14.00
2019-05-07T08:11:07.155Z,14.80
2019-05-07T08:13:57.558Z,14.80
2019-05-07T08:16:46.962Z,14.90
2019-05-07T08:19:36.978Z,14.20
2019-05-07T08:22:27.038Z,14.00
2019-05-07T08:25:16.983Z,14.00
2019-05-07T08:28:06.754Z,14.20
2019-05-07T08:31:07.164Z,13.40
2019-05-07T08:34:06.128Z,13.20
2019-05-07T08:37:02.668Z,14.10
2019-05-07T08:39:52.103Z,14.60
2019-05-07T08:42:41.980Z,14.70
2019-05-07T08:45:49.089Z,14.90
2019-05-07T08:48:43.471Z,14.40
2019-05-07T08:51:36.390Z,14.80
2019-05-07T08:54:25.847Z,15.30
2019-05-07T08:57:16.075Z,15.50
2019-05-07T09:00:06.591Z,16.00
2019-05-07T09:02:56.246Z,15.90
2019-05-07T09:05:46.507Z,15.10
2019-05-07T09:08:36.702Z,15.30
2019-05-07T09:11:25.725Z,15.10
2019-05-07T09:14:15.139Z,15.40
2019-05-07T09:17:04.557Z,15.60
2019-05-07T09:19:55.020Z,15.70
2019-05-07T09:22:44.964Z,16.20
2019-05-07T09:25:46.874Z,16.30
2019-05-07T09:32:22.757Z,15.00
2019-05-07T09:35:16.367Z,14.40
2019-05-07T09:38:06.197Z,13.90
2019-05-07T09:40:57.109Z,13.70
2019-05-07T09:43:47.396Z,13.90
2019-05-07T09:46:40.199Z,14.20
2019-05-07T09:49:32.571Z,14.40
2019-05-07T09:52:22.854Z,14.50
2019-05-07T09:55:17.555Z,14.30
2019-05-07T09:58:06.564Z,13.60
2019-05-07T10:00:56.395Z,13.20
2019-05-07T10:03:46.162Z,13.00
2019-05-07T10:06:38.922Z,12.70
2019-05-07T10:09:28.959Z,12.20
2019-05-07T10:12:28.563Z,12.50
2019-05-07T10:15:18.142Z,12.30
2019-05-07T10:18:16.209Z,12.30
2019-05-07T10:21:06.461Z,12.30
2019-05-07T10:23:57.778Z,12.10
2019-05-07T10:26:48.122Z,12.10
2019-05-07T10:29:39.444Z,12.40
2019-05-07T10:32:32.055Z,12.80
2019-05-07T10:35:23.004Z,13.00
2019-05-07T10:38:12.902Z,13.10
2019-05-07T10:41:03.217Z,13.10
2019-05-07T10:43:53.236Z,12.80
2019-05-07T10:47:02.070Z,12.80
2019-05-07T10:50:11.935Z,12.80
2019-05-07T10:53:02.203Z,12.70
2019-05-07T10:55:52.172Z,12.90
2019-05-07T10:58:41.891Z,13.10
2019-05-07T11:01:42.616Z,13.00
2019-05-07T11:04:42.247Z,12.90
2019-05-07T11:07:27.609Z,12.80
2019-05-07T11:10:18.322Z,12.70
2019-05-07T11:13:08.403Z,12.50
2019-05-07T11:16:06.686Z,12.40
2019-05-07T11:18:56.534Z,12.20
2019-05-07T11:21:47.200Z,12.40
2019-05-07T11:24:37.296Z,12.40
2019-05-07T11:27:26.820Z,12.30
2019-05-07T11:30:18.430Z,12.30
2019-05-07T11:33:07.550Z,12.20
2019-05-07T11:35:57.210Z,12.40
2019-05-07T11:38:46.678Z,12.40
2019-05-07T11:42:07.922Z,12.60
2019-05-07T11:44:57.686Z,12.80
2019-05-07T11:47:47.522Z,12.80
2019-05-07T11:50:43.558Z,12.80
2019-05-07T11:53:33.706Z,12.70
2019-05-07T11:56:24.198Z,12.60
2019-05-07T11:59:14.389Z,12.70
2019-05-07T12:02:05.956Z,12.90
2019-05-07T12:04:55.903Z,12.80
2019-05-07T12:07:45.771Z,12.90
2019-05-07T12:10:36.670Z,12.80
2019-05-07T12:13:26.266Z,13.10
2019-05-07T12:16:16.180Z,13.20
2019-05-07T12:19:13.011Z,13.10
2019-05-07T12:22:03.925Z,13.10
2019-05-07T12:24:54.674Z,13.00
2019-05-07T12:27:45.203Z,13.00
2019-05-07T12:31:00.284Z,13.20
2019-05-07T12:34:02.591Z,13.30
2019-05-07T12:37:04.850Z,13.70
2019-05-07T12:39:55.862Z,13.80
2019-05-07T12:42:45.738Z,13.70
2019-05-07T12:45:35.431Z,13.70
2019-05-07T12:48:25.997Z,13.60
2019-05-07T12:51:16.601Z,13.40
2019-05-07T12:54:20.113Z,13.50
2019-05-07T12:57:11.808Z,13.60
2019-05-07T13:00:19.922Z,13.70
2019-05-07T13:03:27.960Z,13.40
2019-05-07T13:06:17.913Z,13.70
2019-05-07T13:09:14.522Z,13.70
2019-05-07T13:12:05.091Z,13.60
2019-05-07T13:14:54.213Z,13.50
2019-05-07T13:17:43.991Z,13.50
2019-05-07T13:20:43.919Z,13.20
2019-05-07T13:23:34.188Z,13.20
2019-05-07T13:26:24.612Z,13.40
2019-05-07T13:29:16.266Z,13.60
2019-05-07T13:32:06.559Z,13.90
2019-05-07T13:34:58.298Z,13.80
2019-05-07T13:37:53.538Z,13.90
2019-05-07T13:41:20.447Z,14.30
2019-05-07T13:44:28.841Z,14.20
2019-05-07T13:47:27.862Z,14.10
2019-05-07T13:50:17.488Z,14.00
2019-05-07T13:53:06.742Z,14.00
2019-05-07T13:55:56.643Z,13.90
2019-05-07T13:58:46.014Z,13.40
2019-05-07T14:01:58.138Z,13.70
2019-05-07T14:04:47.785Z,13.90
2019-05-07T14:07:41.688Z,14.10
2019-05-07T14:10:33.561Z,14.10
2019-05-07T14:13:22.779Z,13.90
2019-05-07T14:16:13.537Z,13.80
2019-05-07T14:19:04.187Z,13.70
2019-05-07T14:21:54.533Z,13.80
2019-05-07T14:24:43.893Z,13.90
2019-05-07T14:27:33.378Z,14.00
2019-05-07T14:30:24.458Z,14.00
2019-05-07T14:33:19.678Z,13.80
2019-05-07T14:36:13.883Z,13.90
2019-05-07T14:39:06.105Z,14.00
2019-05-07T14:41:58.715Z,14.20
2019-05-07T14:44:49.743Z,14.30
2019-05-07T14:47:39.562Z,14.20
2019-05-07T14:50:28.659Z,14.20
2019-05-07T14:53:18.314Z,14.00
2019-05-07T14:56:08.259Z,13.80
2019-05-07T14:58:58.646Z,13.70
2019-05-07T15:01:55.251Z,13.80
2019-05-07T15:04:46.237Z,14.40
2019-05-07T15:07:36.741Z,14.90
2019-05-07T15:10:27.285Z,15.50
2019-05-07T15:13:16.377Z,15.50
2019-05-07T15:16:06.784Z,16.10
2019-05-07T15:18:57.772Z,16.70
2019-05-07T15:21:52.227Z,16.60
2019-05-07T15:24:42.066Z,16.20
2019-05-07T15:27:32.474Z,15.90
2019-05-07T15:30:22.574Z,15.60
2019-05-07T15:33:12.780Z,15.30
2019-05-07T15:36:06.444Z,14.90
2019-05-07T15:38:54.232Z,14.90
2019-05-07T15:41:49.158Z,14.80
2019-05-07T15:44:39.663Z,15.10
2019-05-07T15:47:35.039Z,14.80
2019-05-07T15:50:28.565Z,15.00
2019-05-07T15:53:42.715Z,15.00
2019-05-07T15:56:32.534Z,15.10
2019-05-07T15:59:22.671Z,14.80
2019-05-07T16:02:25.619Z,14.50
2019-05-07T16:05:15.112Z,14.40
2019-05-07T16:08:07.493Z,14.20
2019-05-07T16:10:56.686Z,13.90
2019-05-07T16:13:54.168Z,13.70
2019-05-07T16:16:48.504Z,13.60
2019-05-07T16:19:39.239Z,13.60
2019-05-07T16:22:33.423Z,13.60
2019-05-07T16:25:24.261Z,13.60
2019-05-07T16:28:13.659Z,13.50
2019-05-07T16:31:04.893Z,13.50
2019-05-07T16:33:54.682Z,13.40
2019-05-07T16:36:53.049Z,13.50
2019-05-07T16:39:43.190Z,13.70
2019-05-07T16:42:32.956Z,13.70
2019-05-07T16:45:23.015Z,13.70
2019-05-07T16:48:12.574Z,13.60
2019-05-07T16:51:02.501Z,13.60
2019-05-07T16:53:52.602Z,13.50
2019-05-07T16:57:02.921Z,13.60
2019-05-07T16:59:52.226Z,13.60
2019-05-07T17:02:45.463Z,13.60
2019-05-07T17:05:34.994Z,13.70
2019-05-07T17:08:51.570Z,13.80
2019-05-07T17:11:40.991Z,13.80
2019-05-07T17:14:35.745Z,13.70
2019-05-07T17:17:25.909Z,13.80
2019-05-07T17:20:16.304Z,13.90
2019-05-07T17:23:07.429Z,14.00
2019-05-07T17:25:57.463Z,13.70
2019-05-07T17:28:46.521Z,13.70
2019-05-07T17:31:36.114Z,13.60
2019-05-07T17:34:26.043Z,13.80
2019-05-07T17:37:15.192Z,13.60
2019-05-07T17:40:07.083Z,13.40
2019-05-07T17:42:56.530Z,13.40
2019-05-07T17:45:46.248Z,13.40
2019-05-07T17:48:36.417Z,13.40
2019-05-07T17:51:52.578Z,13.10
2019-05-07T17:54:42.444Z,13.10
2019-05-07T17:57:33.471Z,13.20
2019-05-07T18:00:24.077Z,13.30
2019-05-07T18:03:33.664Z,13.20
2019-05-07T18:06:23.830Z,13.20
2019-05-07T18:09:13.801Z,13.20
2019-05-07T18:12:03.566Z,13.10
2019-05-07T18:14:53.414Z,13.00
2019-05-07T18:17:48.346Z,12.90
2019-05-07T18:23:33.164Z,12.70
2019-05-07T18:26:30.318Z,12.60
2019-05-07T18:29:14.147Z,12.50
2019-05-07T18:32:12.020Z,12.50
2019-05-07T18:35:02.389Z,12.40
2019-05-07T18:37:52.489Z,12.30
2019-05-07T18:40:43.734Z,12.20
2019-05-07T18:43:33.679Z,12.00
2019-05-07T18:46:23.286Z,11.90
2019-05-07T18:49:13.073Z,11.80
2019-05-07T18:52:13.894Z,11.70
2019-05-07T19:01:12.163Z,11.30
2019-05-07T19:04:02.758Z,11.30
2019-05-07T19:06:52.163Z,11.20
2019-05-07T19:09:42.489Z,11.20
2019-05-07T19:12:34.700Z,11.10
2019-05-07T19:15:24.170Z,11.00
2019-05-07T19:18:13.782Z,11.00
2019-05-07T19:21:06.515Z,10.90
2019-05-07T19:24:02.162Z,10.80
2019-05-07T19:26:52.676Z,10.80
2019-05-07T19:29:45.837Z,10.70
2019-05-07T19:32:35.683Z,10.70
2019-05-07T19:35:25.320Z,10.60
2019-05-07T19:38:14.777Z,10.50
2019-05-07T19:41:03.745Z,10.40
2019-05-07T19:43:53.231Z,10.40
2019-05-07T19:46:49.051Z,10.30
2019-05-07T19:49:38.685Z,10.20
2019-05-07T19:52:29.202Z,10.20
2019-05-07T19:55:21.829Z,10.00
2019-05-07T19:58:12.030Z,9.90
2019-05-07T20:01:03.009Z,9.90
2019-05-07T20:03:53.178Z,9.80
2019-05-07T20:06:43.006Z,9.60
2019-05-07T20:09:35.486Z,9.60
2019-05-07T20:12:25.572Z,9.50
2019-05-07T20:15:15.435Z,9.50
2019-05-07T20:18:05.412Z,9.40
2019-05-07T20:20:54.646Z,9.40
2019-05-07T20:23:44.221Z,9.30
2019-05-07T20:26:33.703Z,9.30
2019-05-07T20:29:23.368Z,9.20
2019-05-07T20:32:12.614Z,9.10
2019-05-07T20:35:02.760Z,9.10
2019-05-07T20:37:52.949Z,9.10
2019-05-07T20:40:42.440Z,9.00
2019-05-07T20:43:32.607Z,8.90
2019-05-07T20:46:21.631Z,8.90
2019-05-07T20:49:14.930Z,8.90
2019-05-07T20:52:09.603Z,8.80
2019-05-07T20:55:27.911Z,8.70
2019-05-07T20:58:07.687Z,8.70
2019-05-07T21:00:58.326Z,8.70
2019-05-07T21:03:48.463Z,8.60
2019-05-07T21:06:38.042Z,8.50
2019-05-07T21:09:26.842Z,8.50
2019-05-07T21:12:15.778Z,8.40
2019-05-07T21:15:05.359Z,8.30
2019-05-07T21:17:54.840Z,8.30
2019-05-07T21:20:44.547Z,8.20
2019-05-07T21:23:34.383Z,8.20
2019-05-07T21:26:24.346Z,8.20
2019-05-07T21:29:13.894Z,8.10
2019-05-07T21:32:04.063Z,8.10
2019-05-07T21:34:53.222Z,8.00
2019-05-07T21:37:42.151Z,7.90
2019-05-07T21:40:32.171Z,7.90
2019-05-07T21:43:22.170Z,7.90
2019-05-07T21:46:12.892Z,7.80
2019-05-07T21:49:03.208Z,7.80
2019-05-07T21:51:54.606Z,7.80
2019-05-07T21:54:58.267Z,7.70
2019-05-07T21:57:56.280Z,7.70
2019-05-07T22:01:08.462Z,7.70
2019-05-07T22:04:01.763Z,7.70
2019-05-07T22:06:52.320Z,7.60
2019-05-07T22:09:42.087Z,7.60
2019-05-07T22:12:31.996Z,7.60
2019-05-07T22:15:22.445Z,7.60
2019-05-07T22:18:12.068Z,7.60
2019-05-07T22:21:02.912Z,7.60
2019-05-07T22:23:52.448Z,7.50
2019-05-07T22:26:42.198Z,7.50
2019-05-07T22:29:31.291Z,7.50
2019-05-07T22:32:37.732Z,7.50
2019-05-07T22:35:37.907Z,7.40
2019-05-07T22:38:45.078Z,7.40
2019-05-07T22:41:35.849Z,7.30
2019-05-07T22:44:26.470Z,7.30
2019-05-07T22:47:22.564Z,7.20
2019-05-07T22:50:12.319Z,7.10
2019-05-07T22:53:01.997Z,7.10
2019-05-07T22:55:57.324Z,7.00
2019-05-07T22:58:55.686Z,6.90
2019-05-07T23:01:46.798Z,6.90
2019-05-07T23:04:36.322Z,6.80
2019-05-07T23:07:25.263Z,6.80
2019-05-07T23:10:15.293Z,6.70
2019-05-07T23:13:04.049Z,6.70
2019-05-07T23:15:53.871Z,6.60
2019-05-07T23:18:43.717Z,6.60
2019-05-07T23:21:32.446Z,6.50
2019-05-07T23:24:22.573Z,6.40
2019-05-07T23:27:14.872Z,6.40
2019-05-07T23:30:03.561Z,6.40
2019-05-07T23:32:52.910Z,6.30
2019-05-07T23:35:42.815Z,6.30
2019-05-07T23:38:32.901Z,6.30
2019-05-07T23:41:32.942Z,6.30
2019-05-07T23:44:23.139Z,6.30
2019-05-07T23:47:12.551Z,6.30
2019-05-07T23:50:02.282Z,6.20
2019-05-07T23:52:52.795Z,6.20
